createdAt,value
2019-06-27T00:00:56.962Z,0.00
2019-06-27T00:01:56.988Z,0.00
2019-06-27T00:02:57.013Z,0.00
2019-06-27T00:03:57.104Z,0.00
2019-06-27T00:04:57.068Z,0.00
2019-06-27T00:05:57.091Z,0.00
2019-06-27T00:06:57.118Z,0.00
2019-06-27T00:07:57.145Z,0.00
2019-06-27T00:08:57.171Z,0.00
2019-06-27T00:09:57.209Z,0.00
2019-06-27T00:10:57.221Z,0.00
2019-06-27T00:11:57.250Z,0.00
2019-06-27T00:12:57.274Z,0.00
2019-06-27T00:13:57.306Z,0.00
2019-06-27T00:14:57.328Z,0.00
2019-06-27T00:15:57.352Z,0.00
2019-06-27T00:16:57.382Z,0.00
2019-06-27T00:17:57.405Z,0.00
2019-06-27T00:18:57.476Z,0.00
2019-06-27T00:19:57.459Z,0.00
2019-06-27T00:20:57.554Z,0.00
2019-06-27T00:21:57.510Z,0.00
2019-06-27T00:22:57.539Z,0.00
2019-06-27T00:23:57.564Z,0.00
2019-06-27T00:24:57.592Z,0.00
2019-06-27T00:25:57.614Z,0.00
2019-06-27T00:26:57.810Z,0.00
2019-06-27T00:27:57.668Z,0.00
2019-06-27T00:28:57.693Z,0.00
2019-06-27T00:29:57.719Z,0.00
2019-06-27T00:30:57.808Z,0.00
2019-06-27T00:31:57.773Z,0.00
2019-06-27T00:32:57.798Z,0.00
2019-06-27T00:33:57.877Z,0.00
2019-06-27T00:34:57.849Z,0.00
2019-06-27T00:35:57.898Z,0.00
2019-06-27T00:36:57.903Z,0.00
2019-06-27T00:37:57.928Z,0.00
2019-06-27T00:38:57.958Z,0.00
2019-06-27T00:39:57.985Z,0.00
2019-06-27T00:40:58.008Z,0.00
2019-06-27T00:41:58.032Z,0.00
2019-06-27T00:42:58.109Z,0.00
2019-06-27T00:43:58.118Z,0.00
2019-06-27T00:44:58.111Z,0.00
2019-06-27T00:45:58.141Z,0.00
2019-06-27T00:46:58.164Z,0.00
2019-06-27T00:47:58.190Z,0.00
2019-06-27T00:48:58.222Z,0.00
2019-06-27T00:49:58.246Z,0.00
2019-06-27T00:50:58.268Z,0.00
2019-06-27T00:51:58.294Z,0.00
2019-06-27T00:52:58.322Z,0.00
2019-06-27T00:53:58.347Z,0.00
2019-06-27T00:54:58.372Z,0.00
2019-06-27T00:55:58.398Z,0.00
2019-06-27T00:57:12.897Z,0.00
2019-06-27T00:57:58.451Z,0.00
2019-06-27T00:58:58.478Z,0.00
2019-06-27T00:59:58.503Z,0.00
2019-06-27T01:00:58.529Z,0.00
2019-06-27T01:01:58.555Z,0.00
2019-06-27T01:02:58.583Z,0.00
2019-06-27T01:03:58.608Z,0.00
2019-06-27T01:04:58.646Z,0.00
2019-06-27T01:05:58.662Z,0.00
2019-06-27T01:06:58.688Z,0.00
2019-06-27T01:07:58.713Z,0.00
2019-06-27T01:08:58.738Z,0.00
2019-06-27T01:10:01.147Z,0.00
2019-06-27T01:10:58.793Z,0.00
2019-06-27T01:11:58.862Z,0.00
2019-06-27T01:12:58.842Z,0.00
2019-06-27T01:13:58.870Z,0.00
2019-06-27T01:14:58.896Z,0.00
2019-06-27T01:15:58.927Z,0.00
2019-06-27T01:16:58.951Z,0.00
2019-06-27T01:17:58.973Z,0.00
2019-06-27T01:18:58.998Z,0.00
2019-06-27T01:19:59.026Z,0.00
2019-06-27T01:20:59.054Z,0.00
2019-06-27T01:21:59.076Z,0.00
2019-06-27T01:22:59.103Z,0.00
2019-06-27T01:23:59.141Z,0.00
2019-06-27T01:24:59.157Z,0.00
2019-06-27T01:25:59.194Z,4.00
2019-06-27T01:26:59.207Z,4.00
2019-06-27T01:27:59.234Z,4.00
2019-06-27T01:28:59.262Z,4.00
2019-06-27T01:29:59.290Z,4.00
2019-06-27T01:30:59.312Z,4.00
2019-06-27T01:31:59.339Z,4.00
2019-06-27T01:32:59.368Z,4.00
2019-06-27T01:33:59.392Z,4.00
2019-06-27T01:34:59.421Z,4.00
2019-06-27T01:35:59.444Z,4.00
2019-06-27T01:36:59.469Z,0.00
2019-06-27T01:37:59.496Z,4.00
2019-06-27T01:38:59.522Z,4.00
2019-06-27T01:39:59.613Z,4.00
2019-06-27T01:40:59.575Z,4.00
2019-06-27T01:41:59.601Z,4.00
2019-06-27T01:42:59.629Z,4.00
2019-06-27T01:43:59.654Z,4.00
2019-06-27T01:44:59.681Z,4.00
2019-06-27T01:45:59.704Z,4.00
2019-06-27T01:46:59.731Z,4.00
2019-06-27T01:47:59.759Z,4.00
2019-06-27T01:48:59.784Z,4.00
2019-06-27T01:49:59.834Z,4.00
2019-06-27T01:50:59.835Z,4.00
2019-06-27T01:51:59.862Z,4.00
2019-06-27T01:52:59.890Z,4.00
2019-06-27T01:53:59.912Z,4.00
2019-06-27T01:54:59.941Z,4.00
2019-06-27T01:55:59.966Z,0.00
2019-06-27T01:56:59.993Z,0.00
2019-06-27T01:58:00.023Z,0.00
2019-06-27T01:59:00.044Z,4.00
2019-06-27T02:00:00.070Z,4.00
2019-06-27T02:01:00.105Z,4.00
2019-06-27T02:02:00.154Z,0.00
2019-06-27T02:03:00.149Z,0.00
2019-06-27T02:04:00.409Z,4.00
2019-06-27T02:05:00.280Z,4.00
2019-06-27T02:06:00.225Z,4.00
2019-06-27T02:07:00.253Z,4.00
2019-06-27T02:08:00.279Z,8.00
2019-06-27T02:09:00.307Z,8.00
2019-06-27T02:10:00.331Z,8.00
2019-06-27T02:11:00.372Z,4.00
2019-06-27T02:12:00.384Z,4.00
2019-06-27T02:13:00.410Z,4.00
2019-06-27T02:14:00.436Z,8.00
2019-06-27T02:15:00.462Z,8.00
2019-06-27T02:16:00.488Z,8.00
2019-06-27T02:17:00.529Z,8.00
2019-06-27T02:18:00.539Z,8.00
2019-06-27T02:19:00.568Z,8.00
2019-06-27T02:20:00.594Z,8.00
2019-06-27T02:21:00.618Z,8.00
2019-06-27T02:22:00.645Z,8.00
2019-06-27T02:23:00.685Z,8.00
2019-06-27T02:24:00.699Z,8.00
2019-06-27T02:25:00.808Z,12.00
2019-06-27T02:26:00.816Z,12.00
2019-06-27T02:27:00.777Z,12.00
2019-06-27T02:28:04.130Z,12.00
2019-06-27T02:29:00.828Z,12.00
2019-06-27T02:30:00.857Z,12.00
2019-06-27T02:31:00.921Z,8.00
2019-06-27T02:32:00.967Z,8.00
2019-06-27T02:33:00.932Z,8.00
2019-06-27T02:34:05.101Z,8.00
2019-06-27T02:35:00.984Z,12.00
2019-06-27T02:36:01.014Z,8.00
2019-06-27T02:37:01.038Z,8.00
2019-06-27T02:38:01.062Z,8.00
2019-06-27T02:39:01.099Z,4.00
2019-06-27T02:40:01.125Z,4.00
2019-06-27T02:41:01.140Z,4.00
2019-06-27T02:42:01.221Z,8.00
2019-06-27T02:43:01.192Z,8.00
2019-06-27T02:44:01.221Z,8.00
2019-06-27T02:45:01.243Z,8.00
2019-06-27T02:46:01.271Z,4.00
2019-06-27T02:47:01.300Z,4.00
2019-06-27T02:48:01.324Z,4.00
2019-06-27T02:49:01.349Z,4.00
2019-06-27T02:50:01.376Z,4.00
2019-06-27T02:51:01.401Z,4.00
2019-06-27T02:52:01.470Z,4.00
2019-06-27T02:53:01.453Z,4.00
2019-06-27T02:54:01.489Z,8.00
2019-06-27T02:55:01.577Z,8.00
2019-06-27T02:56:01.531Z,8.00
2019-06-27T02:57:01.561Z,8.00
2019-06-27T02:58:01.582Z,4.00
2019-06-27T02:59:01.610Z,4.00
2019-06-27T03:00:01.641Z,4.00
2019-06-27T03:01:01.746Z,8.00
2019-06-27T03:02:01.692Z,8.00
2019-06-27T03:03:01.721Z,8.00
2019-06-27T03:04:01.740Z,8.00
2019-06-27T03:05:01.783Z,8.00
2019-06-27T03:06:01.792Z,8.00
2019-06-27T03:07:01.819Z,8.00
2019-06-27T03:08:01.854Z,4.00
2019-06-27T03:09:01.892Z,8.00
2019-06-27T03:10:01.936Z,8.00
2019-06-27T03:11:01.930Z,8.00
2019-06-27T03:12:01.958Z,8.00
2019-06-27T03:13:01.978Z,12.00
2019-06-27T03:14:02.005Z,12.00
2019-06-27T03:15:02.055Z,12.00
2019-06-27T03:16:02.058Z,12.00
2019-06-27T03:17:02.080Z,12.00
2019-06-27T03:18:02.107Z,12.00
2019-06-27T03:19:02.130Z,12.00
2019-06-27T03:20:02.171Z,8.00
2019-06-27T03:21:02.192Z,8.00
2019-06-27T03:22:05.631Z,8.00
2019-06-27T03:23:02.233Z,12.00
2019-06-27T03:24:02.268Z,12.00
2019-06-27T03:25:02.288Z,12.00
2019-06-27T03:26:02.315Z,12.00
2019-06-27T03:27:02.344Z,12.00
2019-06-27T03:28:02.367Z,12.00
2019-06-27T03:29:02.391Z,8.00
2019-06-27T03:30:02.458Z,8.00
2019-06-27T03:31:02.455Z,8.00
2019-06-27T03:32:02.635Z,12.00
2019-06-27T03:33:02.504Z,8.00
2019-06-27T03:34:02.521Z,8.00
2019-06-27T03:35:02.550Z,8.00
2019-06-27T03:36:02.579Z,8.00
2019-06-27T03:37:02.601Z,8.00
2019-06-27T03:38:02.654Z,12.00
2019-06-27T03:39:02.707Z,8.00
2019-06-27T03:40:02.698Z,12.00
2019-06-27T03:41:02.709Z,12.00
2019-06-27T03:42:02.744Z,12.00
2019-06-27T03:43:02.763Z,12.00
2019-06-27T03:44:02.843Z,12.00
2019-06-27T03:45:02.809Z,12.00
2019-06-27T03:46:02.899Z,20.00
2019-06-27T03:47:02.894Z,20.00
2019-06-27T03:48:02.891Z,20.00
2019-06-27T03:49:02.914Z,20.00
2019-06-27T03:50:02.939Z,24.00
2019-06-27T03:51:02.964Z,24.00
2019-06-27T03:52:02.991Z,24.00
2019-06-27T03:53:03.083Z,20.00
2019-06-27T03:54:03.047Z,20.00
2019-06-27T03:55:03.069Z,20.00
2019-06-27T03:56:03.097Z,20.00
2019-06-27T03:57:03.121Z,16.00
2019-06-27T03:58:03.146Z,16.00
2019-06-27T03:59:12.161Z,12.00
2019-06-27T04:00:03.200Z,16.00
2019-06-27T04:01:03.229Z,12.00
2019-06-27T04:02:03.249Z,12.00
2019-06-27T04:03:03.299Z,8.00
2019-06-27T04:04:03.304Z,12.00
2019-06-27T04:05:03.331Z,12.00
2019-06-27T04:06:03.354Z,16.00
2019-06-27T04:07:03.438Z,12.00
2019-06-27T04:08:03.409Z,16.00
2019-06-27T04:09:03.435Z,20.00
2019-06-27T04:10:03.458Z,16.00
2019-06-27T04:11:03.486Z,20.00
2019-06-27T04:12:03.523Z,20.00
2019-06-27T04:13:03.540Z,20.00
2019-06-27T04:14:03.564Z,20.00
2019-06-27T04:15:03.598Z,16.00
2019-06-27T04:16:03.628Z,16.00
2019-06-27T04:17:03.642Z,16.00
2019-06-27T04:18:03.688Z,16.00
2019-06-27T04:19:03.702Z,16.00
2019-06-27T04:20:03.721Z,20.00
2019-06-27T04:21:03.788Z,16.00
2019-06-27T04:22:03.771Z,16.00
2019-06-27T04:23:03.798Z,12.00
2019-06-27T04:24:03.826Z,16.00
2019-06-27T04:25:03.855Z,16.00
2019-06-27T04:26:03.888Z,12.00
2019-06-27T04:27:03.906Z,12.00
2019-06-27T04:28:03.951Z,12.00
2019-06-27T04:29:03.992Z,12.00
2019-06-27T04:30:03.988Z,12.00
2019-06-27T04:31:04.020Z,12.00
2019-06-27T04:32:04.036Z,12.00
2019-06-27T04:33:04.060Z,12.00
2019-06-27T04:34:04.086Z,16.00
2019-06-27T04:35:04.114Z,12.00
2019-06-27T04:36:04.140Z,16.00
2019-06-27T04:37:04.166Z,16.00
2019-06-27T04:38:04.191Z,20.00
2019-06-27T04:39:04.217Z,20.00
2019-06-27T04:40:04.283Z,20.00
2019-06-27T04:41:04.269Z,28.00
2019-06-27T04:42:04.294Z,28.00
2019-06-27T04:43:06.026Z,32.00
2019-06-27T04:44:04.347Z,32.00
2019-06-27T04:45:04.372Z,28.00
2019-06-27T04:46:04.398Z,36.00
2019-06-27T04:47:04.423Z,40.00
2019-06-27T04:48:04.454Z,44.00
2019-06-27T04:49:04.477Z,44.00
2019-06-27T04:50:04.552Z,44.00
2019-06-27T04:51:04.529Z,40.00
2019-06-27T04:52:04.556Z,40.00
2019-06-27T04:53:04.593Z,40.00
2019-06-27T04:54:04.607Z,40.00
2019-06-27T04:55:04.632Z,44.00
2019-06-27T04:56:04.657Z,40.00
2019-06-27T04:57:04.686Z,44.00
2019-06-27T04:58:04.711Z,48.00
2019-06-27T04:59:04.737Z,48.00
2019-06-27T05:00:04.763Z,48.00
2019-06-27T05:01:04.804Z,44.00
2019-06-27T05:02:04.815Z,56.00
2019-06-27T05:03:04.841Z,52.00
2019-06-27T05:04:04.871Z,48.00
2019-06-27T05:05:04.894Z,44.00
2019-06-27T05:06:04.918Z,40.00
2019-06-27T05:07:04.949Z,40.00
2019-06-27T05:08:05.005Z,36.00
2019-06-27T05:09:05.055Z,40.00
2019-06-27T05:10:05.028Z,48.00
2019-06-27T05:11:05.054Z,56.00
2019-06-27T05:12:05.077Z,56.00
2019-06-27T05:13:05.104Z,60.00
2019-06-27T05:14:05.176Z,56.00
2019-06-27T05:15:05.156Z,56.00
2019-06-27T05:16:05.219Z,52.00
2019-06-27T05:17:05.208Z,52.00
2019-06-27T05:18:05.230Z,56.00
2019-06-27T05:19:05.258Z,52.00
2019-06-27T05:20:05.285Z,48.00
2019-06-27T05:21:05.310Z,48.00
2019-06-27T05:22:05.336Z,52.00
2019-06-27T05:23:05.362Z,48.00
2019-06-27T05:24:05.393Z,52.00
2019-06-27T05:25:05.414Z,52.00
2019-06-27T05:26:05.442Z,52.00
2019-06-27T05:27:05.468Z,56.00
2019-06-27T05:28:05.495Z,56.00
2019-06-27T05:29:05.525Z,56.00
2019-06-27T05:30:09.899Z,52.00
2019-06-27T05:31:05.572Z,52.00
2019-06-27T05:32:05.598Z,48.00
2019-06-27T05:33:05.624Z,48.00
2019-06-27T05:34:05.649Z,48.00
2019-06-27T05:35:05.675Z,56.00
2019-06-27T05:36:05.701Z,60.00
2019-06-27T05:37:05.727Z,64.00
2019-06-27T05:38:05.756Z,76.00
2019-06-27T05:39:05.784Z,68.00
2019-06-27T05:40:05.840Z,64.00
2019-06-27T05:41:05.845Z,60.00
2019-06-27T05:42:05.868Z,60.00
2019-06-27T05:43:05.935Z,60.00
2019-06-27T05:44:05.909Z,56.00
2019-06-27T05:45:05.936Z,60.00
2019-06-27T05:46:05.964Z,56.00
2019-06-27T05:47:05.990Z,52.00
2019-06-27T05:48:06.014Z,48.00
2019-06-27T05:49:06.043Z,44.00
2019-06-27T05:50:06.065Z,44.00
2019-06-27T05:51:06.093Z,48.00
2019-06-27T05:52:06.118Z,48.00
2019-06-27T05:53:06.149Z,44.00
2019-06-27T05:54:06.171Z,44.00
2019-06-27T05:55:06.199Z,44.00
2019-06-27T05:56:06.225Z,44.00
2019-06-27T05:57:06.247Z,36.00
2019-06-27T05:58:06.275Z,40.00
2019-06-27T05:59:06.305Z,44.00
2019-06-27T06:00:06.348Z,44.00
2019-06-27T06:01:06.358Z,44.00
2019-06-27T06:02:06.388Z,48.00
2019-06-27T06:03:06.408Z,44.00
2019-06-27T06:04:06.499Z,52.00
2019-06-27T06:05:06.457Z,56.00
2019-06-27T06:06:06.483Z,52.00
2019-06-27T06:07:06.511Z,56.00
2019-06-27T06:08:06.536Z,52.00
2019-06-27T06:09:06.560Z,52.00
2019-06-27T06:10:06.586Z,52.00
2019-06-27T06:11:06.616Z,48.00
2019-06-27T06:12:06.640Z,48.00
2019-06-27T06:13:06.664Z,44.00
2019-06-27T06:14:06.691Z,48.00
2019-06-27T06:15:06.725Z,52.00
2019-06-27T06:16:06.744Z,56.00
2019-06-27T06:17:06.770Z,68.00
2019-06-27T06:18:06.796Z,68.00
2019-06-27T06:19:06.821Z,80.00
2019-06-27T06:20:06.848Z,84.00
2019-06-27T06:21:06.877Z,92.00
2019-06-27T06:22:06.899Z,96.00
2019-06-27T06:23:06.925Z,92.00
2019-06-27T06:24:06.953Z,92.00
2019-06-27T06:25:06.980Z,92.00
2019-06-27T06:26:07.005Z,96.00
2019-06-27T06:27:07.031Z,104.00
2019-06-27T06:28:07.096Z,116.00
2019-06-27T06:29:07.130Z,128.00
2019-06-27T06:30:07.114Z,136.00
2019-06-27T06:31:07.135Z,144.00
2019-06-27T06:32:07.217Z,156.00
2019-06-27T06:33:07.187Z,188.00
2019-06-27T06:34:07.260Z,204.00
2019-06-27T06:35:07.242Z,208.00
2019-06-27T06:36:07.268Z,220.00
2019-06-27T06:37:08.245Z,204.00
2019-06-27T06:38:07.319Z,184.00
2019-06-27T06:39:07.344Z,176.00
2019-06-27T06:40:07.373Z,184.00
2019-06-27T06:41:07.403Z,180.00
2019-06-27T06:42:07.440Z,180.00
2019-06-27T06:43:07.447Z,172.00
2019-06-27T06:44:07.475Z,176.00
2019-06-27T06:45:07.502Z,184.00
2019-06-27T06:46:07.593Z,164.00
2019-06-27T06:47:07.552Z,136.00
2019-06-27T06:48:07.591Z,116.00
2019-06-27T06:49:07.605Z,116.00
2019-06-27T06:50:07.631Z,136.00
2019-06-27T06:51:07.657Z,148.00
2019-06-27T06:52:07.683Z,176.00
2019-06-27T06:53:07.722Z,180.00
2019-06-27T06:54:07.735Z,164.00
2019-06-27T06:55:07.760Z,148.00
2019-06-27T06:56:07.790Z,156.00
2019-06-27T06:57:07.813Z,144.00
2019-06-27T06:58:07.842Z,128.00
2019-06-27T06:59:07.864Z,120.00
2019-06-27T07:00:07.892Z,124.00
2019-06-27T07:01:07.954Z,132.00
2019-06-27T07:02:07.950Z,132.00
2019-06-27T07:03:07.969Z,136.00
2019-06-27T07:04:07.997Z,136.00
2019-06-27T07:05:08.088Z,140.00
2019-06-27T07:06:08.047Z,128.00
2019-06-27T07:07:08.080Z,136.00
2019-06-27T07:08:08.102Z,144.00
2019-06-27T07:09:08.127Z,168.00
2019-06-27T07:10:08.154Z,172.00
2019-06-27T07:11:08.188Z,172.00
2019-06-27T07:12:08.205Z,164.00
2019-06-27T07:13:08.283Z,136.00
2019-06-27T07:14:08.258Z,120.00
2019-06-27T07:15:08.283Z,120.00
2019-06-27T07:16:08.311Z,108.00
2019-06-27T07:17:08.398Z,84.00
2019-06-27T07:18:08.403Z,76.00
2019-06-27T07:19:08.483Z,68.00
2019-06-27T07:20:08.413Z,68.00
2019-06-27T07:21:08.439Z,72.00
2019-06-27T07:22:08.465Z,80.00
2019-06-27T07:23:08.491Z,84.00
2019-06-27T07:24:08.519Z,76.00
2019-06-27T07:25:08.553Z,64.00
2019-06-27T07:26:08.573Z,60.00
2019-06-27T07:27:08.601Z,56.00
2019-06-27T07:28:08.629Z,56.00
2019-06-27T07:29:08.650Z,52.00
2019-06-27T07:30:08.674Z,48.00
2019-06-27T07:31:17.925Z,44.00
2019-06-27T07:32:08.728Z,40.00
2019-06-27T07:33:10.343Z,44.00
2019-06-27T07:34:08.781Z,48.00
2019-06-27T07:35:08.807Z,52.00
2019-06-27T07:36:08.836Z,60.00
2019-06-27T07:37:08.862Z,64.00
2019-06-27T07:38:08.888Z,72.00
2019-06-27T07:39:08.910Z,76.00
2019-06-27T07:40:08.937Z,80.00
2019-06-27T07:41:08.964Z,88.00
2019-06-27T07:42:08.988Z,92.00
2019-06-27T07:43:09.016Z,96.00
2019-06-27T07:44:09.041Z,92.00
2019-06-27T07:45:09.069Z,100.00
2019-06-27T07:46:24.003Z,104.00
2019-06-27T07:47:09.123Z,96.00
2019-06-27T07:48:09.172Z,100.00
2019-06-27T07:49:09.172Z,112.00
2019-06-27T07:50:09.215Z,112.00
2019-06-27T07:51:09.225Z,120.00
2019-06-27T07:52:09.252Z,132.00
2019-06-27T07:53:09.279Z,148.00
2019-06-27T07:54:09.320Z,160.00
2019-06-27T07:55:09.329Z,164.00
2019-06-27T07:56:09.371Z,184.00
2019-06-27T07:57:09.381Z,200.00
2019-06-27T07:58:09.422Z,220.00
2019-06-27T07:59:09.434Z,176.00
2019-06-27T08:00:09.485Z,144.00
2019-06-27T08:01:09.488Z,156.00
2019-06-27T08:02:09.514Z,152.00
2019-06-27T08:03:09.539Z,140.00
2019-06-27T08:04:09.566Z,124.00
2019-06-27T08:06:09.622Z,120.00
2019-06-27T08:07:09.643Z,128.00
2019-06-27T08:08:09.673Z,156.00
2019-06-27T08:09:09.696Z,160.00
2019-06-27T08:10:09.727Z,148.00
2019-06-27T08:11:09.747Z,176.00
2019-06-27T08:12:09.827Z,180.00
2019-06-27T08:13:09.802Z,196.00
2019-06-27T08:14:09.826Z,260.00
2019-06-27T08:15:09.914Z,296.00
2019-06-27T08:16:09.878Z,224.00
2019-06-27T08:17:09.904Z,256.00
2019-06-27T08:18:09.930Z,252.00
2019-06-27T08:19:09.958Z,284.00
2019-06-27T08:20:09.983Z,332.00
2019-06-27T08:21:10.011Z,380.00
2019-06-27T08:22:10.060Z,392.00
2019-06-27T08:23:10.064Z,340.00
2019-06-27T08:24:10.155Z,260.00
2019-06-27T08:25:10.115Z,184.00
2019-06-27T08:26:10.140Z,128.00
2019-06-27T08:27:10.177Z,88.00
2019-06-27T08:28:10.193Z,76.00
2019-06-27T08:29:10.222Z,80.00
2019-06-27T08:30:10.251Z,84.00
2019-06-27T08:31:10.271Z,100.00
2019-06-27T08:32:10.302Z,116.00
2019-06-27T08:33:10.353Z,128.00
2019-06-27T08:34:10.354Z,144.00
2019-06-27T08:35:10.375Z,152.00
2019-06-27T08:36:10.426Z,156.00
2019-06-27T08:37:10.429Z,152.00
2019-06-27T08:38:10.533Z,156.00
2019-06-27T08:39:10.522Z,160.00
2019-06-27T08:40:10.548Z,164.00
2019-06-27T08:41:13.865Z,168.00
2019-06-27T08:42:10.563Z,156.00
2019-06-27T08:43:10.588Z,132.00
2019-06-27T08:44:10.615Z,112.00
2019-06-27T08:45:10.702Z,96.00
2019-06-27T08:46:10.670Z,84.00
2019-06-27T08:47:10.691Z,88.00
2019-06-27T08:48:10.732Z,112.00
2019-06-27T08:49:10.774Z,152.00
2019-06-27T08:50:10.770Z,204.00
2019-06-27T08:51:10.801Z,252.00
2019-06-27T08:52:10.822Z,276.00
2019-06-27T08:53:10.852Z,292.00
2019-06-27T08:54:10.884Z,308.00
2019-06-27T08:55:10.941Z,308.00
2019-06-27T08:56:10.929Z,340.00
2019-06-27T08:57:11.015Z,348.00
2019-06-27T08:58:10.982Z,312.00
2019-06-27T08:59:11.007Z,292.00
2019-06-27T09:00:11.041Z,268.00
2019-06-27T09:01:11.064Z,240.00
2019-06-27T09:02:11.085Z,212.00
2019-06-27T09:03:11.113Z,180.00
2019-06-27T09:04:11.149Z,156.00
2019-06-27T09:05:11.163Z,132.00
2019-06-27T09:06:11.190Z,120.00
2019-06-27T09:07:11.218Z,120.00
2019-06-27T09:08:11.284Z,124.00
2019-06-27T09:09:11.270Z,104.00
2019-06-27T09:10:11.350Z,112.00
2019-06-27T09:11:11.322Z,148.00
2019-06-27T09:12:11.411Z,172.00
2019-06-27T09:13:11.373Z,164.00
2019-06-27T09:14:11.400Z,148.00
2019-06-27T09:15:11.472Z,128.00
2019-06-27T09:16:11.462Z,116.00
2019-06-27T09:17:11.478Z,124.00
2019-06-27T09:18:11.504Z,140.00
2019-06-27T09:19:11.622Z,156.00
2019-06-27T09:20:11.623Z,180.00
2019-06-27T09:21:11.585Z,188.00
2019-06-27T09:22:11.608Z,180.00
2019-06-27T09:23:11.637Z,164.00
2019-06-27T09:24:11.663Z,140.00
2019-06-27T09:25:11.717Z,124.00
2019-06-27T09:26:11.714Z,124.00
2019-06-27T09:27:11.741Z,120.00
2019-06-27T09:28:11.786Z,120.00
2019-06-27T09:29:11.795Z,120.00
2019-06-27T09:30:11.826Z,124.00
2019-06-27T09:31:11.908Z,124.00
2019-06-27T09:32:24.895Z,128.00
2019-06-27T09:33:11.930Z,136.00
2019-06-27T09:34:11.991Z,140.00
2019-06-27T09:35:11.955Z,144.00
2019-06-27T09:36:12.058Z,144.00
2019-06-27T09:37:12.006Z,148.00
2019-06-27T09:38:12.030Z,148.00
2019-06-27T09:39:12.058Z,152.00
2019-06-27T09:40:12.081Z,148.00
2019-06-27T09:41:12.109Z,148.00
2019-06-27T09:42:12.172Z,156.00
2019-06-27T09:43:12.161Z,176.00
2019-06-27T09:44:12.190Z,200.00
2019-06-27T09:45:12.215Z,204.00
2019-06-27T09:46:12.239Z,200.00
2019-06-27T09:47:12.309Z,192.00
2019-06-27T09:48:12.292Z,188.00
2019-06-27T09:49:12.319Z,176.00
2019-06-27T09:50:12.346Z,172.00
2019-06-27T09:51:12.418Z,192.00
2019-06-27T09:52:12.399Z,212.00
2019-06-27T09:53:12.424Z,224.00
2019-06-27T09:54:12.450Z,220.00
2019-06-27T09:55:12.476Z,232.00
2019-06-27T09:56:12.504Z,240.00
2019-06-27T09:57:12.539Z,244.00
2019-06-27T09:58:12.556Z,240.00
2019-06-27T09:59:12.646Z,244.00
2019-06-27T10:00:12.609Z,240.00
2019-06-27T10:01:12.639Z,240.00
2019-06-27T10:02:12.704Z,244.00
2019-06-27T10:03:12.687Z,252.00
2019-06-27T10:04:12.712Z,264.00
2019-06-27T10:05:12.746Z,268.00
2019-06-27T10:06:12.767Z,268.00
2019-06-27T10:07:12.796Z,264.00
2019-06-27T10:08:12.830Z,264.00
2019-06-27T10:09:12.847Z,264.00
2019-06-27T10:10:12.877Z,260.00
2019-06-27T10:11:12.947Z,252.00
2019-06-27T10:12:12.923Z,248.00
2019-06-27T10:13:13.017Z,248.00
2019-06-27T10:14:12.976Z,252.00
2019-06-27T10:15:13.002Z,264.00
2019-06-27T10:16:13.046Z,264.00
2019-06-27T10:17:13.056Z,268.00
2019-06-27T10:18:13.080Z,268.00
2019-06-27T10:19:13.114Z,268.00
2019-06-27T10:20:13.134Z,268.00
2019-06-27T10:21:13.162Z,268.00
2019-06-27T10:22:13.190Z,264.00
2019-06-27T10:23:13.215Z,268.00
2019-06-27T10:24:13.239Z,268.00
2019-06-27T10:25:13.267Z,264.00
2019-06-27T10:26:13.291Z,264.00
2019-06-27T10:27:13.317Z,264.00
2019-06-27T10:28:13.345Z,264.00
2019-06-27T10:29:13.371Z,276.00
2019-06-27T10:30:13.440Z,264.00
2019-06-27T10:31:13.422Z,252.00
2019-06-27T10:32:13.508Z,252.00
2019-06-27T10:33:13.476Z,232.00
2019-06-27T10:34:13.501Z,220.00
2019-06-27T10:35:13.529Z,200.00
2019-06-27T10:36:13.555Z,192.00
2019-06-27T10:37:13.582Z,192.00
2019-06-27T10:38:13.607Z,196.00
2019-06-27T10:39:13.634Z,216.00
2019-06-27T10:40:13.661Z,240.00
2019-06-27T10:41:13.689Z,252.00
2019-06-27T10:42:13.712Z,260.00
2019-06-27T10:43:13.739Z,260.00
2019-06-27T10:44:13.822Z,256.00
2019-06-27T10:45:13.792Z,256.00
2019-06-27T10:46:13.817Z,260.00
2019-06-27T10:47:13.845Z,260.00
2019-06-27T10:48:13.872Z,260.00
2019-06-27T10:49:13.900Z,260.00
2019-06-27T10:50:13.996Z,256.00
2019-06-27T10:51:13.951Z,256.00
2019-06-27T10:52:13.978Z,256.00
2019-06-27T10:53:14.002Z,256.00
2019-06-27T10:54:14.029Z,256.00
2019-06-27T10:55:14.149Z,248.00
2019-06-27T10:56:14.097Z,248.00
2019-06-27T10:57:14.107Z,252.00
2019-06-27T10:58:14.134Z,252.00
2019-06-27T10:59:14.160Z,244.00
2019-06-27T11:00:14.193Z,236.00
2019-06-27T11:01:14.214Z,240.00
2019-06-27T11:02:14.238Z,236.00
2019-06-27T11:03:16.012Z,244.00
2019-06-27T11:04:14.292Z,248.00
2019-06-27T11:05:14.318Z,248.00
2019-06-27T11:06:14.343Z,256.00
2019-06-27T11:07:14.432Z,260.00
2019-06-27T11:08:14.397Z,260.00
2019-06-27T11:09:14.576Z,252.00
2019-06-27T11:10:14.460Z,260.00
2019-06-27T11:11:14.527Z,268.00
2019-06-27T11:12:14.508Z,272.00
2019-06-27T11:13:14.540Z,264.00
2019-06-27T11:14:14.555Z,260.00
2019-06-27T11:15:14.580Z,264.00
2019-06-27T11:16:14.666Z,280.00
2019-06-27T11:17:14.635Z,276.00
2019-06-27T11:18:14.658Z,268.00
2019-06-27T11:19:14.702Z,264.00
2019-06-27T11:20:15.499Z,260.00
2019-06-27T11:21:14.816Z,264.00
2019-06-27T11:22:14.765Z,260.00
2019-06-27T11:23:14.808Z,244.00
2019-06-27T11:24:14.819Z,248.00
2019-06-27T11:25:14.848Z,240.00
2019-06-27T11:26:14.882Z,240.00
2019-06-27T11:27:14.896Z,256.00
2019-06-27T11:28:14.925Z,236.00
2019-06-27T11:29:14.955Z,208.00
2019-06-27T11:30:15.016Z,208.00
2019-06-27T11:31:15.002Z,228.00
2019-06-27T11:32:15.030Z,240.00
2019-06-27T11:33:31.410Z,212.00
2019-06-27T11:34:15.084Z,240.00
2019-06-27T11:35:15.140Z,228.00
2019-06-27T11:36:15.134Z,228.00
2019-06-27T11:37:15.163Z,212.00
2019-06-27T11:38:15.186Z,200.00
2019-06-27T11:39:15.213Z,196.00
2019-06-27T11:40:15.241Z,184.00
2019-06-27T11:41:15.271Z,204.00
2019-06-27T11:42:15.293Z,204.00
2019-06-27T11:43:15.319Z,200.00
2019-06-27T11:44:15.347Z,192.00
2019-06-27T11:45:15.465Z,192.00
2019-06-27T11:46:15.398Z,176.00
2019-06-27T11:47:15.423Z,172.00
2019-06-27T11:48:15.492Z,172.00
2019-06-27T11:49:15.478Z,172.00
2019-06-27T11:50:15.503Z,180.00
2019-06-27T11:51:15.533Z,188.00
2019-06-27T11:52:15.555Z,196.00
2019-06-27T11:53:15.586Z,208.00
2019-06-27T11:54:15.610Z,224.00
2019-06-27T11:55:15.651Z,228.00
2019-06-27T11:56:15.668Z,232.00
2019-06-27T11:57:15.714Z,236.00
2019-06-27T11:58:15.714Z,232.00
2019-06-27T11:59:15.740Z,228.00
2019-06-27T12:00:15.773Z,232.00
2019-06-27T12:01:15.795Z,236.00
2019-06-27T12:02:15.819Z,236.00
2019-06-27T12:03:15.846Z,240.00
2019-06-27T12:04:15.961Z,248.00
2019-06-27T12:05:15.904Z,248.00
2019-06-27T12:06:15.925Z,252.00
2019-06-27T12:07:16.017Z,252.00
2019-06-27T12:08:15.982Z,260.00
2019-06-27T12:09:16.002Z,264.00
2019-06-27T12:10:16.030Z,268.00
2019-06-27T12:11:16.059Z,272.00
2019-06-27T12:12:16.121Z,272.00
2019-06-27T12:13:16.140Z,272.00
2019-06-27T12:14:16.135Z,272.00
2019-06-27T12:15:16.161Z,276.00
2019-06-27T12:16:16.191Z,268.00
2019-06-27T12:17:16.235Z,272.00
2019-06-27T12:18:16.240Z,264.00
2019-06-27T12:19:16.271Z,260.00
2019-06-27T12:20:16.293Z,256.00
2019-06-27T12:21:16.320Z,256.00
2019-06-27T12:22:16.353Z,252.00
2019-06-27T12:23:16.373Z,244.00
2019-06-27T12:24:16.454Z,236.00
2019-06-27T12:25:16.426Z,236.00
2019-06-27T12:26:16.479Z,232.00
2019-06-27T12:27:16.478Z,224.00
2019-06-27T12:28:16.502Z,204.00
2019-06-27T12:29:16.586Z,180.00
2019-06-27T12:30:16.557Z,212.00
2019-06-27T12:31:21.028Z,176.00
2019-06-27T12:32:16.610Z,176.00
2019-06-27T12:33:16.677Z,204.00
2019-06-27T12:34:16.661Z,204.00
2019-06-27T12:35:16.687Z,196.00
2019-06-27T12:36:16.723Z,180.00
2019-06-27T12:37:16.741Z,172.00
2019-06-27T12:38:16.769Z,160.00
2019-06-27T12:39:16.821Z,156.00
2019-06-27T12:40:16.823Z,156.00
2019-06-27T12:41:16.847Z,152.00
2019-06-27T12:42:31.554Z,140.00
2019-06-27T12:43:16.902Z,136.00
2019-06-27T12:44:16.930Z,144.00
2019-06-27T12:45:16.954Z,152.00
2019-06-27T12:46:16.978Z,132.00
2019-06-27T12:47:17.005Z,152.00
2019-06-27T12:48:17.030Z,128.00
2019-06-27T12:49:17.059Z,136.00